createdAt,value
2018-06-18T00:00:00.784Z,1013.64
2018-06-18T00:00:26.953Z,1013.62
2018-06-18T00:00:53.122Z,1013.62
2018-06-18T00:01:19.284Z,1013.65
2018-06-18T00:01:45.425Z,1013.66
2018-06-18T00:02:11.577Z,1013.63
2018-06-18T00:02:37.710Z,1013.66
2018-06-18T00:03:03.850Z,1013.68
2018-06-18T00:03:29.985Z,1013.67
2018-06-18T00:03:56.144Z,1013.73
2018-06-18T00:04:22.284Z,1013.71
2018-06-18T00:04:48.450Z,1013.71
2018-06-18T00:05:14.589Z,1013.76
2018-06-18T00:05:40.725Z,1013.76
2018-06-18T00:06:06.875Z,1013.78
2018-06-18T00:06:33.036Z,1013.82
2018-06-18T00:06:59.200Z,1013.81
2018-06-18T00:07:25.339Z,1013.82
2018-06-18T00:07:51.481Z,1013.86
2018-06-18T00:08:17.621Z,1013.91
2018-06-18T00:08:43.769Z,1013.91
2018-06-18T00:09:09.902Z,1013.89
2018-06-18T00:09:36.041Z,1013.84
2018-06-18T00:10:02.181Z,1013.86
2018-06-18T00:10:28.325Z,1013.85
2018-06-18T00:10:54.465Z,1013.84
2018-06-18T00:11:20.601Z,1013.86
2018-06-18T00:11:46.748Z,1013.87
2018-06-18T00:12:12.882Z,1013.84
2018-06-18T00:12:39.025Z,1013.86
2018-06-18T00:13:05.166Z,1013.84
2018-06-18T00:13:31.300Z,1013.87
2018-06-18T00:13:57.466Z,1013.87
2018-06-18T00:14:23.607Z,1013.88
2018-06-18T00:14:49.749Z,1013.91
2018-06-18T00:15:15.920Z,1013.94
2018-06-18T00:15:42.102Z,1013.93
2018-06-18T00:16:08.244Z,1013.93
2018-06-18T00:16:34.383Z,1013.93
2018-06-18T00:17:00.515Z,1013.94
2018-06-18T00:17:26.661Z,1013.9
2018-06-18T00:17:52.797Z,1013.95
2018-06-18T00:18:18.958Z,1013.96
2018-06-18T00:18:45.108Z,1013.95
2018-06-18T00:19:11.248Z,1013.94
2018-06-18T00:19:37.384Z,1013.92
2018-06-18T00:20:03.521Z,1013.94
2018-06-18T00:20:29.688Z,1013.91
2018-06-18T00:20:55.826Z,1013.95
2018-06-18T00:21:21.968Z,1013.93
2018-06-18T00:21:48.108Z,1013.96
2018-06-18T00:22:14.271Z,1013.97
2018-06-18T00:22:40.461Z,1013.98
2018-06-18T00:23:06.604Z,1013.99
2018-06-18T00:23:32.763Z,1013.98
2018-06-18T00:23:58.906Z,1014
2018-06-18T00:24:25.041Z,1013.96
2018-06-18T00:24:51.179Z,1013.97
2018-06-18T00:25:17.320Z,1013.95
2018-06-18T00:25:43.462Z,1013.98
2018-06-18T00:26:09.588Z,1013.96
2018-06-18T00:26:35.734Z,1013.95
2018-06-18T00:27:01.862Z,1013.93
2018-06-18T00:27:27.994Z,1013.91
2018-06-18T00:27:54.133Z,1013.91
2018-06-18T00:28:20.276Z,1013.91
2018-06-18T00:28:46.413Z,1013.89
2018-06-18T00:29:12.550Z,1013.89
2018-06-18T00:29:38.713Z,1013.9
2018-06-18T00:30:04.850Z,1013.89
2018-06-18T00:30:30.996Z,1013.9
2018-06-18T00:30:57.156Z,1013.88
2018-06-18T00:31:23.297Z,1013.88
2018-06-18T00:31:49.443Z,1013.84
2018-06-18T00:32:15.578Z,1013.87
2018-06-18T00:32:41.724Z,1013.85
2018-06-18T00:33:07.860Z,1013.83
2018-06-18T00:33:34.046Z,1013.85
2018-06-18T00:34:00.210Z,1013.83
2018-06-18T00:34:26.343Z,1013.82
2018-06-18T00:34:52.481Z,1013.88
2018-06-18T00:35:18.619Z,1013.85
2018-06-18T00:35:44.764Z,1013.83
2018-06-18T00:36:10.934Z,1013.89
2018-06-18T00:36:37.070Z,1013.85
2018-06-18T00:37:03.205Z,1013.82
2018-06-18T00:37:29.377Z,1013.8
2018-06-18T00:37:55.515Z,1013.82
2018-06-18T00:38:21.657Z,1013.8
2018-06-18T00:38:47.800Z,1013.84
2018-06-18T00:39:13.941Z,1013.82
2018-06-18T00:39:40.100Z,1013.86
2018-06-18T00:40:06.248Z,1013.89
2018-06-18T00:40:32.388Z,1013.87
2018-06-18T00:40:58.522Z,1013.86
2018-06-18T00:41:24.715Z,1013.85
2018-06-18T00:41:50.861Z,1013.84
2018-06-18T00:42:17.001Z,1013.85
2018-06-18T00:42:43.163Z,1013.89
2018-06-18T00:43:09.303Z,1013.89
2018-06-18T00:43:35.470Z,1013.86
2018-06-18T00:44:01.609Z,1013.86
2018-06-18T00:44:27.745Z,1013.86
2018-06-18T00:44:53.891Z,1013.88
2018-06-18T00:45:20.050Z,1013.84
2018-06-18T00:45:46.210Z,1013.88
2018-06-18T00:46:12.374Z,1013.89
2018-06-18T00:46:38.515Z,1013.89
2018-06-18T00:47:04.656Z,1013.84
2018-06-18T00:47:30.789Z,1013.83
2018-06-18T00:47:56.927Z,1013.84
2018-06-18T00:48:23.087Z,1013.79
2018-06-18T00:48:49.224Z,1013.79
2018-06-18T00:49:15.363Z,1013.76
2018-06-18T00:49:41.507Z,1013.71
2018-06-18T00:50:07.652Z,1013.74
2018-06-18T00:50:33.787Z,1013.7
2018-06-18T00:50:59.920Z,1013.69
2018-06-18T00:51:26.064Z,1013.67
2018-06-18T00:51:52.223Z,1013.64
2018-06-18T00:52:18.394Z,1013.61
2018-06-18T00:52:44.533Z,1013.57
2018-06-18T00:53:10.672Z,1013.63
2018-06-18T00:53:36.808Z,1013.61
2018-06-18T00:54:02.949Z,1013.62
2018-06-18T00:54:29.085Z,1013.6
2018-06-18T00:54:55.252Z,1013.6
2018-06-18T00:55:21.391Z,1013.61
2018-06-18T00:55:47.536Z,1013.57
2018-06-18T00:56:13.722Z,1013.55
2018-06-18T00:56:39.859Z,1013.56
2018-06-18T00:57:05.999Z,1013.57
2018-06-18T00:57:32.140Z,1013.56
2018-06-18T00:57:58.307Z,1013.57
2018-06-18T00:58:24.461Z,1013.53
2018-06-18T00:58:50.623Z,1013.53
2018-06-18T00:59:16.771Z,1013.48
2018-06-18T00:59:42.924Z,1013.46
2018-06-18T01:00:09.097Z,1013.43
2018-06-18T01:00:35.231Z,1013.41
2018-06-18T01:01:01.373Z,1013.4
2018-06-18T01:01:27.517Z,1013.4
2018-06-18T01:01:53.654Z,1013.37
2018-06-18T01:02:19.821Z,1013.38
2018-06-18T01:02:45.964Z,1013.41
2018-06-18T01:03:12.106Z,1013.36
2018-06-18T01:03:38.242Z,1013.36
2018-06-18T01:04:04.378Z,1013.38
2018-06-18T01:04:30.523Z,1013.39
2018-06-18T01:04:56.663Z,1013.35
2018-06-18T01:05:22.799Z,1013.33
2018-06-18T01:05:48.967Z,1013.31
2018-06-18T01:06:15.105Z,1013.31
2018-06-18T01:06:41.240Z,1013.33
2018-06-18T01:07:07.384Z,1013.33
2018-06-18T01:07:33.528Z,1013.28
2018-06-18T01:07:59.664Z,1013.27
2018-06-18T01:08:25.805Z,1013.24
2018-06-18T01:08:51.941Z,1013.25
2018-06-18T01:09:18.090Z,1013.25
2018-06-18T01:09:44.251Z,1013.27
2018-06-18T01:10:10.410Z,1013.28
2018-06-18T01:10:36.553Z,1013.25
2018-06-18T01:11:02.699Z,1013.28
2018-06-18T01:11:28.856Z,1013.27
2018-06-18T01:11:54.973Z,1013.31
2018-06-18T01:12:21.136Z,1013.26
2018-06-18T01:12:47.272Z,1013.29
2018-06-18T01:13:13.422Z,1013.3
2018-06-18T01:13:39.559Z,1013.32
2018-06-18T01:14:05.704Z,1013.28
2018-06-18T01:14:31.842Z,1013.28
2018-06-18T01:14:58.005Z,1013.29
2018-06-18T01:15:24.169Z,1013.3
2018-06-18T01:15:50.307Z,1013.29
2018-06-18T01:16:16.451Z,1013.31
2018-06-18T01:16:42.593Z,1013.29
2018-06-18T01:17:08.775Z,1013.31
2018-06-18T01:17:34.912Z,1013.32
2018-06-18T01:18:01.048Z,1013.32
2018-06-18T01:18:27.192Z,1013.29
2018-06-18T01:18:53.326Z,1013.32
2018-06-18T01:19:19.465Z,1013.3
2018-06-18T01:19:45.603Z,1013.28
2018-06-18T01:20:11.737Z,1013.27
2018-06-18T01:20:37.878Z,1013.27
2018-06-18T01:21:04.017Z,1013.23
2018-06-18T01:21:30.156Z,1013.28
2018-06-18T01:21:56.292Z,1013.25
2018-06-18T01:22:22.443Z,1013.22
2018-06-18T01:22:48.573Z,1013.23
2018-06-18T01:23:14.725Z,1013.19
2018-06-18T01:23:40.871Z,1013.22
2018-06-18T01:24:07.005Z,1013.22
2018-06-18T01:24:33.149Z,1013.21
2018-06-18T01:24:59.287Z,1013.17
2018-06-18T01:25:25.433Z,1013.17
2018-06-18T01:25:51.569Z,1013.14
2018-06-18T01:26:17.736Z,1013.15
2018-06-18T01:26:43.875Z,1013.15
2018-06-18T01:27:10.035Z,1013.14
2018-06-18T01:27:36.199Z,1013.15
2018-06-18T01:28:02.341Z,1013.14
2018-06-18T01:28:28.491Z,1013.13
2018-06-18T01:28:54.663Z,1013.15
2018-06-18T01:29:20.796Z,1013.16
2018-06-18T01:29:46.937Z,1013.18
2018-06-18T01:30:13.073Z,1013.19
2018-06-18T01:30:39.219Z,1013.23
2018-06-18T01:31:05.355Z,1013.23
2018-06-18T01:31:31.494Z,1013.25
2018-06-18T01:31:57.633Z,1013.21
2018-06-18T01:32:23.776Z,1013.26
2018-06-18T01:32:49.911Z,1013.23
2018-06-18T01:33:16.051Z,1013.24
2018-06-18T01:33:42.196Z,1013.23
2018-06-18T01:34:08.358Z,1013.23
2018-06-18T01:34:34.496Z,1013.21
2018-06-18T01:35:00.640Z,1013.19
2018-06-18T01:35:26.800Z,1013.22
2018-06-18T01:35:52.969Z,1013.21
2018-06-18T01:36:19.126Z,1013.23
2018-06-18T01:36:45.291Z,1013.22
2018-06-18T01:37:11.430Z,1013.25
2018-06-18T01:37:37.577Z,1013.24
2018-06-18T01:38:03.715Z,1013.27
2018-06-18T01:38:29.860Z,1013.27
2018-06-18T01:38:55.994Z,1013.27
2018-06-18T01:39:22.145Z,1013.24
2018-06-18T01:39:48.279Z,1013.27
2018-06-18T01:40:14.418Z,1013.28
2018-06-18T01:40:40.556Z,1013.24
2018-06-18T01:41:06.746Z,1013.25
2018-06-18T01:41:32.883Z,1013.3
2018-06-18T01:41:59.019Z,1013.26
2018-06-18T01:42:25.177Z,1013.3
2018-06-18T01:42:51.316Z,1013.31
2018-06-18T01:43:17.455Z,1013.29
2018-06-18T01:43:43.590Z,1013.33
2018-06-18T01:44:09.728Z,1013.35
2018-06-18T01:44:35.867Z,1013.32
2018-06-18T01:45:02.006Z,1013.31
2018-06-18T01:45:28.186Z,1013.35
2018-06-18T01:45:54.348Z,1013.34
2018-06-18T01:46:20.485Z,1013.35
2018-06-18T01:46:46.623Z,1013.41
2018-06-18T01:47:12.764Z,1013.39
2018-06-18T01:47:38.921Z,1013.4
2018-06-18T01:48:05.071Z,1013.37
2018-06-18T01:48:31.226Z,1013.42
2018-06-18T01:48:57.397Z,1013.38
2018-06-18T01:49:23.554Z,1013.4
2018-06-18T01:49:49.699Z,1013.37
2018-06-18T01:50:15.833Z,1013.39
2018-06-18T01:50:41.998Z,1013.34
2018-06-18T01:51:08.131Z,1013.38
2018-06-18T01:51:34.275Z,1013.34
2018-06-18T01:52:00.445Z,1013.34
2018-06-18T01:52:26.582Z,1013.33
2018-06-18T01:52:52.719Z,1013.34
2018-06-18T01:53:18.859Z,1013.31
2018-06-18T01:53:45.020Z,1013.3
2018-06-18T01:54:11.186Z,1013.32
2018-06-18T01:54:37.350Z,1013.31
2018-06-18T01:55:03.487Z,1013.26
2018-06-18T01:55:29.648Z,1013.26
2018-06-18T01:55:55.837Z,1013.28
2018-06-18T01:56:21.972Z,1013.25
2018-06-18T01:56:48.114Z,1013.26
2018-06-18T01:57:14.249Z,1013.23
2018-06-18T01:57:40.387Z,1013.22
2018-06-18T01:58:06.523Z,1013.24
2018-06-18T01:58:32.664Z,1013.2
2018-06-18T01:58:58.830Z,1013.2
2018-06-18T01:59:24.974Z,1013.17
2018-06-18T01:59:51.136Z,1013.17
2018-06-18T02:00:17.273Z,1013.2
2018-06-18T02:00:43.418Z,1013.17
2018-06-18T02:01:09.557Z,1013.15
2018-06-18T02:01:35.700Z,1013.14
2018-06-18T02:02:01.858Z,1013.14
2018-06-18T02:02:27.993Z,1013.16
2018-06-18T02:02:54.129Z,1013.18
2018-06-18T02:03:20.266Z,1013.17
2018-06-18T02:03:46.428Z,1013.19
2018-06-18T02:04:12.557Z,1013.18
2018-06-18T02:04:38.724Z,1013.14
2018-06-18T02:05:04.862Z,1013.19
2018-06-18T02:05:31.000Z,1013.19
2018-06-18T02:05:57.153Z,1013.2
2018-06-18T02:06:23.303Z,1013.17
2018-06-18T02:06:49.500Z,1013.2
2018-06-18T02:07:15.642Z,1013.2
2018-06-18T02:07:41.782Z,1013.21
2018-06-18T02:08:07.927Z,1013.22
2018-06-18T02:08:34.063Z,1013.26
2018-06-18T02:09:00.210Z,1013.24
2018-06-18T02:09:26.343Z,1013.2
2018-06-18T02:09:52.491Z,1013.2
2018-06-18T02:10:18.701Z,1013.21
2018-06-18T02:10:44.814Z,1013.21
2018-06-18T02:11:10.962Z,1013.24
2018-06-18T02:11:37.106Z,1013.2
2018-06-18T02:12:03.233Z,1013.2
2018-06-18T02:12:29.370Z,1013.14
2018-06-18T02:12:55.513Z,1013.18
2018-06-18T02:13:21.648Z,1013.15
2018-06-18T02:13:47.808Z,1013.12
2018-06-18T02:14:13.948Z,1013.13
2018-06-18T02:14:40.081Z,1013.14
2018-06-18T02:15:06.224Z,1013.11
2018-06-18T02:15:32.360Z,1013.1
2018-06-18T02:15:58.521Z,1013.09
2018-06-18T02:16:24.687Z,1013.1
2018-06-18T02:16:50.823Z,1013.11
2018-06-18T02:17:16.964Z,1013.12
2018-06-18T02:17:43.130Z,1013.15
2018-06-18T02:18:09.271Z,1013.13
2018-06-18T02:18:35.409Z,1013.2
2018-06-18T02:19:01.548Z,1013.17
2018-06-18T02:19:27.692Z,1013.17
2018-06-18T02:19:53.853Z,1013.19
2018-06-18T02:20:19.996Z,1013.15
2018-06-18T02:20:46.132Z,1013.16
2018-06-18T02:21:12.277Z,1013.18
2018-06-18T02:21:38.407Z,1013.17
2018-06-18T02:22:04.555Z,1013.18
2018-06-18T02:22:30.697Z,1013.17
2018-06-18T02:22:56.840Z,1013.14
2018-06-18T02:23:22.976Z,1013.16
2018-06-18T02:23:49.116Z,1013.17
2018-06-18T02:24:15.251Z,1013.11
2018-06-18T02:24:41.393Z,1013.11
2018-06-18T02:25:07.534Z,1013.1
2018-06-18T02:25:33.705Z,1013.11
2018-06-18T02:25:59.863Z,1013.1
2018-06-18T02:26:26.043Z,1013.07
2018-06-18T02:26:52.172Z,1013.07
2018-06-18T02:27:18.315Z,1013.07
2018-06-18T02:27:44.452Z,1013.04
2018-06-18T02:28:10.587Z,1013.04
2018-06-18T02:28:36.745Z,1013.05
2018-06-18T02:29:02.881Z,1013.05
2018-06-18T02:29:29.043Z,1013.04
2018-06-18T02:29:55.187Z,1013.05
2018-06-18T02:30:21.322Z,1013.03
2018-06-18T02:30:47.484Z,1013.09
2018-06-18T02:31:13.621Z,1013.07
2018-06-18T02:31:39.766Z,1013.06
2018-06-18T02:32:05.961Z,1013.07
2018-06-18T02:32:32.105Z,1013.03
2018-06-18T02:32:58.284Z,1013.04
2018-06-18T02:33:24.458Z,1013.06
2018-06-18T02:33:50.622Z,1013.08
2018-06-18T02:34:16.788Z,1013.04
2018-06-18T02:34:42.943Z,1013.06
2018-06-18T02:35:09.136Z,1013.04
2018-06-18T02:35:35.323Z,1013.04
2018-06-18T02:36:01.485Z,1013.05
2018-06-18T02:36:27.674Z,1013.07
2018-06-18T02:36:53.838Z,1013.08
2018-06-18T02:37:19.974Z,1013.06
2018-06-18T02:37:46.139Z,1013.03
2018-06-18T02:38:12.281Z,1013.01
2018-06-18T02:38:38.441Z,1013.01
2018-06-18T02:39:04.605Z,1013.02
2018-06-18T02:39:30.766Z,1013.03
2018-06-18T02:39:56.945Z,1012.99
2018-06-18T02:40:23.110Z,1013
2018-06-18T02:40:49.261Z,1013.02
2018-06-18T02:41:15.457Z,1013.01
2018-06-18T02:41:41.617Z,1013.03
2018-06-18T02:42:07.780Z,1013.05
2018-06-18T02:42:33.936Z,1013.08
2018-06-18T02:43:00.109Z,1013.09
2018-06-18T02:43:26.271Z,1013.09
2018-06-18T02:43:52.431Z,1013.08
2018-06-18T02:44:18.598Z,1013.1
2018-06-18T02:44:44.782Z,1013.09
2018-06-18T02:45:11.003Z,1013.13
2018-06-18T02:45:37.157Z,1013.12
2018-06-18T02:46:03.323Z,1013.13
2018-06-18T02:46:29.515Z,1013.13
2018-06-18T02:46:55.678Z,1013.17
2018-06-18T02:47:21.823Z,1013.11
2018-06-18T02:47:47.962Z,1013.13
2018-06-18T02:48:14.123Z,1013.16
2018-06-18T02:48:40.272Z,1013.16
2018-06-18T02:49:06.461Z,1013.19
2018-06-18T02:49:32.614Z,1013.16
2018-06-18T02:49:58.785Z,1013.16
2018-06-18T02:50:24.913Z,1013.17
2018-06-18T02:50:51.080Z,1013.18
2018-06-18T02:51:17.214Z,1013.18
2018-06-18T02:51:43.382Z,1013.17
2018-06-18T02:52:09.570Z,1013.2
2018-06-18T02:52:35.703Z,1013.18
2018-06-18T02:53:01.853Z,1013.19
2018-06-18T02:53:27.988Z,1013.19
2018-06-18T02:53:54.159Z,1013.2
2018-06-18T02:54:20.330Z,1013.21
2018-06-18T02:54:46.497Z,1013.25
2018-06-18T02:55:12.653Z,1013.21
2018-06-18T02:55:38.819Z,1013.2
2018-06-18T02:56:04.956Z,1013.22
2018-06-18T02:56:31.143Z,1013.24
2018-06-18T02:56:57.307Z,1013.22
2018-06-18T02:57:23.505Z,1013.23
2018-06-18T02:57:49.644Z,1013.21
2018-06-18T02:58:15.800Z,1013.22
2018-06-18T02:58:41.965Z,1013.21
2018-06-18T02:59:08.103Z,1013.19
2018-06-18T02:59:34.266Z,1013.2
2018-06-18T03:00:00.450Z,1013.16
2018-06-18T03:00:26.589Z,1013.2
2018-06-18T03:00:52.803Z,1013.21
2018-06-18T03:01:18.941Z,1013.21
2018-06-18T03:01:45.104Z,1013.17
2018-06-18T03:02:11.296Z,1013.15
2018-06-18T03:02:37.440Z,1013.16
2018-06-18T03:03:03.600Z,1013.17
2018-06-18T03:03:29.742Z,1013.16
2018-06-18T03:03:55.929Z,1013.14
2018-06-18T03:04:22.060Z,1013.17
2018-06-18T03:04:48.298Z,1013.17
2018-06-18T03:05:14.455Z,1013.2
2018-06-18T03:05:40.798Z,1013.17
2018-06-18T03:06:06.979Z,1013.16
2018-06-18T03:06:33.338Z,1013.18
2018-06-18T03:06:59.692Z,1013.17
2018-06-18T03:07:25.906Z,1013.19
2018-06-18T03:07:52.098Z,1013.22
2018-06-18T03:08:18.565Z,1013.24
2018-06-18T03:08:44.848Z,1013.23
2018-06-18T03:09:11.120Z,1013.2
2018-06-18T03:09:37.342Z,1013.21
2018-06-18T03:10:03.499Z,1013.21
2018-06-18T03:10:29.680Z,1013.2
2018-06-18T03:10:55.854Z,1013.22
2018-06-18T03:11:22.013Z,1013.25
2018-06-18T03:11:48.178Z,1013.23
2018-06-18T03:12:14.322Z,1013.22
2018-06-18T03:12:40.463Z,1013.24
2018-06-18T03:13:06.618Z,1013.22
2018-06-18T03:13:32.789Z,1013.24
2018-06-18T03:13:58.958Z,1013.27
2018-06-18T03:14:25.097Z,1013.26
2018-06-18T03:14:51.229Z,1013.29
2018-06-18T03:15:17.380Z,1013.28
2018-06-18T03:15:43.542Z,1013.29
2018-06-18T03:16:09.706Z,1013.27
2018-06-18T03:16:35.879Z,1013.29
2018-06-18T03:17:02.046Z,1013.29
2018-06-18T03:17:28.210Z,1013.32
2018-06-18T03:17:54.342Z,1013.28
2018-06-18T03:18:20.481Z,1013.31
2018-06-18T03:18:46.646Z,1013.28
2018-06-18T03:19:12.783Z,1013.28
2018-06-18T03:19:38.948Z,1013.29
2018-06-18T03:20:05.090Z,1013.25
2018-06-18T03:20:31.223Z,1013.3
2018-06-18T03:20:57.362Z,1013.29
2018-06-18T03:21:23.548Z,1013.28
2018-06-18T03:21:49.691Z,1013.3
2018-06-18T03:22:15.826Z,1013.33
2018-06-18T03:22:41.958Z,1013.28
2018-06-18T03:23:08.108Z,1013.31
2018-06-18T03:23:34.238Z,1013.32
2018-06-18T03:24:00.409Z,1013.29
2018-06-18T03:24:26.568Z,1013.3
2018-06-18T03:24:52.705Z,1013.3
2018-06-18T03:25:18.839Z,1013.3
2018-06-18T03:25:44.984Z,1013.32
2018-06-18T03:26:11.140Z,1013.33
2018-06-18T03:26:37.282Z,1013.34
2018-06-18T03:27:03.419Z,1013.34
2018-06-18T03:27:29.581Z,1013.35
2018-06-18T03:27:55.715Z,1013.36
2018-06-18T03:28:21.860Z,1013.34
2018-06-18T03:28:47.999Z,1013.36
2018-06-18T03:29:14.138Z,1013.31
2018-06-18T03:29:40.297Z,1013.38
2018-06-18T03:30:06.437Z,1013.35
2018-06-18T03:30:32.621Z,1013.36
2018-06-18T03:30:58.781Z,1013.36
2018-06-18T03:31:24.943Z,1013.36
2018-06-18T03:31:51.130Z,1013.36
2018-06-18T03:32:17.324Z,1013.35
2018-06-18T03:32:43.469Z,1013.38
2018-06-18T03:33:09.633Z,1013.37
2018-06-18T03:33:35.780Z,1013.36
2018-06-18T03:34:01.925Z,1013.4
2018-06-18T03:34:28.090Z,1013.36
2018-06-18T03:34:54.222Z,1013.38
2018-06-18T03:35:20.367Z,1013.43
2018-06-18T03:35:46.519Z,1013.4
2018-06-18T03:36:12.664Z,1013.43
2018-06-18T03:36:38.800Z,1013.45
2018-06-18T03:37:04.993Z,1013.39
2018-06-18T03:37:31.080Z,1013.43
2018-06-18T03:37:57.246Z,1013.41
2018-06-18T03:38:23.391Z,1013.41
2018-06-18T03:38:49.529Z,1013.37
2018-06-18T03:39:15.700Z,1013.45
2018-06-18T03:39:41.836Z,1013.44
2018-06-18T03:40:08.004Z,1013.42
2018-06-18T03:40:34.141Z,1013.44
2018-06-18T03:41:00.315Z,1013.39
2018-06-18T03:41:26.453Z,1013.43
2018-06-18T03:41:52.592Z,1013.42
2018-06-18T03:42:18.726Z,1013.43
2018-06-18T03:42:44.864Z,1013.47
2018-06-18T03:43:11.029Z,1013.49
2018-06-18T03:43:37.161Z,1013.49
2018-06-18T03:44:03.308Z,1013.47
2018-06-18T03:44:29.447Z,1013.48
2018-06-18T03:44:55.589Z,1013.47
2018-06-18T03:45:21.723Z,1013.46
2018-06-18T03:45:47.869Z,1013.46
2018-06-18T03:46:14.033Z,1013.4
2018-06-18T03:46:40.169Z,1013.46
2018-06-18T03:47:06.329Z,1013.44
2018-06-18T03:47:32.501Z,1013.4
2018-06-18T03:47:58.661Z,1013.43
2018-06-18T03:48:24.802Z,1013.43
2018-06-18T03:48:50.941Z,1013.36
2018-06-18T03:49:17.106Z,1013.38
2018-06-18T03:49:43.246Z,1013.37
2018-06-18T03:50:09.383Z,1013.44
2018-06-18T03:50:35.522Z,1013.5
2018-06-18T03:51:01.664Z,1013.43
2018-06-18T03:51:27.805Z,1013.44
2018-06-18T03:51:53.942Z,1013.44
2018-06-18T03:52:20.081Z,1013.44
2018-06-18T03:52:46.246Z,1013.42
2018-06-18T03:53:12.392Z,1013.42
2018-06-18T03:53:38.529Z,1013.42
2018-06-18T03:54:04.699Z,1013.45
2018-06-18T03:54:30.839Z,1013.46
2018-06-18T03:54:56.969Z,1013.41
2018-06-18T03:55:23.114Z,1013.4
2018-06-18T03:55:49.272Z,1013.46
2018-06-18T03:56:15.445Z,1013.45
2018-06-18T03:56:41.544Z,1013.49
2018-06-18T03:57:07.689Z,1013.5
2018-06-18T03:57:33.828Z,1013.42
2018-06-18T03:57:59.974Z,1013.46
2018-06-18T03:58:26.109Z,1013.45
2018-06-18T03:58:52.259Z,1013.49
2018-06-18T03:59:18.405Z,1013.48
2018-06-18T03:59:44.541Z,1013.46
2018-06-18T04:00:10.677Z,1013.47
2018-06-18T04:00:36.824Z,1013.49
2018-06-18T04:01:02.957Z,1013.48
2018-06-18T04:01:29.097Z,1013.46
2018-06-18T04:01:55.241Z,1013.47
2018-06-18T04:02:21.382Z,1013.46
2018-06-18T04:02:47.516Z,1013.42
2018-06-18T04:03:13.665Z,1013.41
2018-06-18T04:03:39.803Z,1013.42
2018-06-18T04:04:05.956Z,1013.47
2018-06-18T04:04:32.094Z,1013.42
2018-06-18T04:04:58.242Z,1013.44
2018-06-18T04:05:24.403Z,1013.38
2018-06-18T04:05:50.543Z,1013.39
2018-06-18T04:06:16.678Z,1013.4
2018-06-18T04:06:42.825Z,1013.42
2018-06-18T04:07:08.978Z,1013.41
2018-06-18T04:07:35.118Z,1013.41
2018-06-18T04:08:01.261Z,1013.44
2018-06-18T04:08:27.398Z,1013.41
2018-06-18T04:08:53.535Z,1013.45
2018-06-18T04:09:19.684Z,1013.42
2018-06-18T04:09:45.825Z,1013.44
2018-06-18T04:10:11.965Z,1013.46
2018-06-18T04:10:38.099Z,1013.44
2018-06-18T04:11:04.264Z,1013.48
2018-06-18T04:11:30.387Z,1013.46
2018-06-18T04:11:56.522Z,1013.43
2018-06-18T04:12:22.763Z,1013.47
2018-06-18T04:12:48.853Z,1013.45
2018-06-18T04:13:15.012Z,1013.46
2018-06-18T04:13:41.149Z,1013.5
2018-06-18T04:14:07.296Z,1013.49
2018-06-18T04:14:33.454Z,1013.5
2018-06-18T04:14:59.617Z,1013.49
2018-06-18T04:15:25.756Z,1013.5
2018-06-18T04:15:51.903Z,1013.49
2018-06-18T04:16:18.061Z,1013.47
2018-06-18T04:16:44.206Z,1013.44
2018-06-18T04:17:10.341Z,1013.49
2018-06-18T04:17:36.482Z,1013.43
2018-06-18T04:18:02.642Z,1013.48
2018-06-18T04:18:28.777Z,1013.47
2018-06-18T04:18:54.926Z,1013.48
2018-06-18T04:19:21.080Z,1013.48
2018-06-18T04:19:47.198Z,1013.46
2018-06-18T04:20:13.360Z,1013.45
2018-06-18T04:20:39.508Z,1013.53
2018-06-18T04:21:05.660Z,1013.48
2018-06-18T04:21:31.818Z,1013.49
2018-06-18T04:21:57.942Z,1013.5
2018-06-18T04:22:24.078Z,1013.47
2018-06-18T04:22:50.221Z,1013.47
2018-06-18T04:23:16.358Z,1013.5
2018-06-18T04:23:42.497Z,1013.49
2018-06-18T04:24:08.633Z,1013.48
2018-06-18T04:24:34.769Z,1013.47
2018-06-18T04:25:00.917Z,1013.52
2018-06-18T04:25:27.060Z,1013.47
2018-06-18T04:25:53.191Z,1013.46
2018-06-18T04:26:19.327Z,1013.43
2018-06-18T04:26:45.463Z,1013.45
2018-06-18T04:27:11.685Z,1013.48
2018-06-18T04:27:37.846Z,1013.49
2018-06-18T04:28:04.016Z,1013.46
2018-06-18T04:28:30.147Z,1013.42
2018-06-18T04:28:56.305Z,1013.47
2018-06-18T04:29:22.463Z,1013.45
2018-06-18T04:29:48.606Z,1013.47
2018-06-18T04:30:14.736Z,1013.41
2018-06-18T04:30:40.930Z,1013.41
2018-06-18T04:31:07.080Z,1013.42
2018-06-18T04:31:33.219Z,1013.4
2018-06-18T04:31:59.359Z,1013.35
2018-06-18T04:32:25.493Z,1013.4
2018-06-18T04:32:51.813Z,1013.41
2018-06-18T04:33:18.319Z,1013.38
2018-06-18T04:33:44.463Z,1013.4
2018-06-18T04:34:10.605Z,1013.4
2018-06-18T04:34:36.762Z,1013.37
2018-06-18T04:35:02.896Z,1013.41
2018-06-18T04:35:29.045Z,1013.38
2018-06-18T04:35:55.216Z,1013.42
2018-06-18T04:36:21.369Z,1013.39
2018-06-18T04:36:47.543Z,1013.38
2018-06-18T04:37:13.698Z,1013.42
2018-06-18T04:37:39.904Z,1013.43
2018-06-18T04:38:06.022Z,1013.42
2018-06-18T04:38:32.166Z,1013.36
2018-06-18T04:38:58.296Z,1013.38
2018-06-18T04:39:24.434Z,1013.42
2018-06-18T04:39:50.581Z,1013.38
2018-06-18T04:40:16.771Z,1013.44
2018-06-18T04:40:42.913Z,1013.43
2018-06-18T04:41:09.056Z,1013.42
2018-06-18T04:41:35.195Z,1013.39
2018-06-18T04:42:01.355Z,1013.41
2018-06-18T04:42:27.524Z,1013.45
2018-06-18T04:42:53.668Z,1013.42
2018-06-18T04:43:19.806Z,1013.35
2018-06-18T04:43:45.942Z,1013.42
2018-06-18T04:44:12.086Z,1013.38
2018-06-18T04:44:38.227Z,1013.4
2018-06-18T04:45:04.363Z,1013.34
2018-06-18T04:45:30.501Z,1013.37
2018-06-18T04:45:56.651Z,1013.39
2018-06-18T04:46:22.815Z,1013.38
2018-06-18T04:46:48.980Z,1013.39
2018-06-18T04:47:15.145Z,1013.38
2018-06-18T04:47:41.313Z,1013.38
2018-06-18T04:48:07.459Z,1013.36
2018-06-18T04:48:33.593Z,1013.34
2018-06-18T04:48:59.729Z,1013.35
2018-06-18T04:49:25.875Z,1013.3
2018-06-18T04:49:52.014Z,1013.32
2018-06-18T04:50:18.148Z,1013.34
2018-06-18T04:50:44.286Z,1013.35
2018-06-18T04:51:10.428Z,1013.37
2018-06-18T04:51:36.559Z,1013.37
2018-06-18T04:52:02.725Z,1013.36
2018-06-18T04:52:28.865Z,1013.35
2018-06-18T04:52:55.008Z,1013.4
2018-06-18T04:53:21.141Z,1013.41
2018-06-18T04:53:47.314Z,1013.41
2018-06-18T04:54:13.446Z,1013.38
2018-06-18T04:54:39.609Z,1013.38
2018-06-18T04:55:05.747Z,1013.42
2018-06-18T04:55:31.887Z,1013.4
2018-06-18T04:55:58.049Z,1013.39
2018-06-18T04:56:24.214Z,1013.4
2018-06-18T04:56:50.363Z,1013.4
2018-06-18T04:57:16.503Z,1013.36
2018-06-18T04:57:42.644Z,1013.37
2018-06-18T04:58:08.783Z,1013.39
2018-06-18T04:58:34.929Z,1013.41
2018-06-18T04:59:01.092Z,1013.41
2018-06-18T04:59:27.234Z,1013.4
2018-06-18T04:59:53.368Z,1013.39
2018-06-18T05:00:19.502Z,1013.37
2018-06-18T05:00:45.643Z,1013.4
2018-06-18T05:01:11.781Z,1013.37
2018-06-18T05:01:37.941Z,1013.37
2018-06-18T05:02:04.107Z,1013.34
2018-06-18T05:02:30.293Z,1013.37
2018-06-18T05:02:56.433Z,1013.35
2018-06-18T05:03:22.665Z,1013.36
2018-06-18T05:03:48.780Z,1013.4
2018-06-18T05:04:14.954Z,1013.39
2018-06-18T05:04:41.122Z,1013.37
2018-06-18T05:05:07.311Z,1013.37
2018-06-18T05:05:33.452Z,1013.43
2018-06-18T05:05:59.588Z,1013.41
2018-06-18T05:06:25.755Z,1013.42
2018-06-18T05:06:51.893Z,1013.4
2018-06-18T05:07:18.042Z,1013.45
2018-06-18T05:07:44.172Z,1013.45
2018-06-18T05:08:10.313Z,1013.47
2018-06-18T05:08:36.450Z,1013.45
2018-06-18T05:09:02.593Z,1013.47
2018-06-18T05:09:28.726Z,1013.46
2018-06-18T05:09:54.862Z,1013.47
2018-06-18T05:10:20.999Z,1013.51
2018-06-18T05:10:47.146Z,1013.45
2018-06-18T05:11:13.278Z,1013.49
2018-06-18T05:11:39.445Z,1013.5
2018-06-18T05:12:05.573Z,1013.51
2018-06-18T05:12:31.713Z,1013.56
2018-06-18T05:12:57.891Z,1013.51
2018-06-18T05:13:24.027Z,1013.49
2018-06-18T05:13:50.161Z,1013.53
2018-06-18T05:14:16.318Z,1013.47
2018-06-18T05:14:42.460Z,1013.5
2018-06-18T05:15:08.595Z,1013.45
2018-06-18T05:15:34.735Z,1013.47
2018-06-18T05:16:00.880Z,1013.48
2018-06-18T05:16:27.077Z,1013.52
2018-06-18T05:16:53.209Z,1013.55
2018-06-18T05:17:19.351Z,1013.52